メインページ
METAR-TAF:

METAR-TAF

空港 :

モンバサ, ケニヤ

緯度: 04-02S, 経度: 039-37E, 海抜: 57m

現時点の気象観測

当レポートは41分前の08:00(UTC)に作成
の風 12kt
気温 26°C
湿度 65%
気圧 1019 hPa
視程10km以上
高度2300ftの雲は散在している

METAR: HKMO 200800Z 18012KT 9999 SCT023 26/19 Q1019 NOSIG

時間: 11:41 (08:41 UTC)

予報

当レポートは3時間41分前の05:00(UTC)に作成
予報は20日の 06時(UTC)から 21日の 12時(UTC)まで有効
南西の風 5kt
視程10km以上
高度2200ftの千切れ雲あり
20日の 09時(UTC)から 20日の 12時(UTC)まで徐々に
南/南東の風 10kt
高度2400ftの雲は散在している
高度8000ftの千切れ雲あり
20日の 18時(UTC)から 20日の 21時(UTC)まで徐々に
南/南西の風 5kt
高度2200ftの雲は散在している
21日の 00時(UTC)から 21日の 06時(UTC)まで一時的に
西/南西の風 5kt
高度1900ftの雲は散在している
高度8000ftの千切れ雲あり
弱いにわか雨
21日の 09時(UTC)から 21日の 12時(UTC)まで徐々に
南/南東の風 10kt
高度2400ftの雲は散在している

TAF: HKMO 200500Z 2006/2112 22005KT 9999 BKN022 BECMG 2009/2012 16010KT SCT024 BKN080 BECMG 2018/2021 20005KT SCT022 TEMPO 2100/2106 24005KT -SHRA SCT019 BKN080 BECMG 2109/2112 16010KT SCT024

4,000以上の空港の気象観測と天気予報(METAR報とTAF報)

利用可能な観測所は地図上に黄色い丸と赤い丸で示す。

丸の上にカーソルを重ねると観測所名を参照できる。

次にクリックすると気象観測と天気予報を参照できる。

マップの切り替え:黒色「×」印の緑ボタンをクリックして拡大、「-」印の緑ボタンをクリックして縮小、緑色の三角印をクリックして隣りの地図に切り替え


METAR-TAF: